Time;durP1;ratioP1;P1;durP2;ratioP2;P2;SDS_P1;SDS_P2;PMS_P1;PMS_P2;Temp;Humidity;BMP_temperature;BMP_pressure;BME280_temperature;BME280_humidity;BME280_pressure;Samples;Min_cycle;Max_cycle;Signal;HPM_P1;HPM_P2
2022/07/10 00:00:21;;;;;;;;;;;;;;;16.79;65.32;98529.06;4955463;28;19975;-77
2022/07/10 00:02:52;;;;;;;;;;;;;;;16.75;65.53;98529.72;4978030;28;20341;-77
2022/07/10 00:05:22;;;;;;;;;;;;;;;16.72;65.57;98530.44;4972254;28;20315;-77
2022/07/10 00:07:51;;;;;;;;;;;;;;;16.66;65.96;98525.44;4979574;28;20292;-77
2022/07/10 00:10:19;;;;;;;;;;;;;;;16.65;66.04;98526.56;4992731;28;19952;-77
2022/07/10 00:12:48;;;;;;;;;;;;;;;16.60;66.18;98527.56;4992449;28;19926;-77
2022/07/10 00:15:17;;;;;;;;;;;;;;;16.56;66.21;98526.63;4978246;28;19938;-77
2022/07/10 00:17:45;;;;;;;;;;;;;;;16.54;66.38;98526.19;5004072;28;19926;-78
2022/07/10 00:20:14;;;;;;;;;;;;;;;16.45;66.55;98522.69;4986933;28;19932;-77
2022/07/10 00:22:43;;;;;;;;;;;;;;;16.46;66.50;98516.91;4990016;28;20196;-77
2022/07/10 00:25:12;;;;;;;;;;;;;;;16.39;66.80;98515.81;5004245;28;19932;-77
2022/07/10 00:27:40;;;;;;;;;;;;;;;16.35;67.12;98512.13;4970875;28;19976;-77
2022/07/10 00:30:09;;;;;;;;;;;;;;;16.30;67.09;98512.31;4988770;28;19926;-76
2022/07/10 00:32:37;;;;;;;;;;;;;;;16.35;66.86;98509.38;4972070;28;19988;-77
2022/07/10 00:35:05;;;;;;;;;;;;;;;16.28;67.35;98514.59;4990537;28;19925;-77
2022/07/10 00:37:34;;;;;;;;;;;;;;;16.29;67.12;98513.47;5006297;28;20294;-77
2022/07/10 00:40:05;;;;;;;;;;;;;;;16.25;67.32;98516.09;4992100;28;20137;-77
2022/07/10 00:42:33;;;;;;;;;;;;;;;16.16;67.47;98502.44;4993441;28;19926;-77
2022/07/10 00:45:01;;;;;;;;;;;;;;;16.05;67.98;98498.47;4982843;28;19929;-78
2022/07/10 00:47:29;;;;;;;;;;;;;;;16.05;67.89;98500.44;4978012;28;19948;-77
2022/07/10 00:49:57;;;;;;;;;;;;;;;16.05;67.87;98501.22;4988378;28;19932;-77
2022/07/10 00:52:25;;;;;;;;;;;;;;;15.98;68.22;98506.44;5001452;28;19982;-78
2022/07/10 00:54:53;;;;;;;;;;;;;;;15.95;68.29;98512.56;4974177;28;19930;-78
2022/07/10 00:57:22;;;;;;;;;;;;;;;15.92;68.43;98513.22;4975943;28;19925;-78
2022/07/10 00:59:51;;;;;;;;;;;;;;;15.85;68.42;98511.00;5005872;28;19930;-78
2022/07/10 01:02:19;;;;;;;;;;;;;;;15.87;68.46;98516.16;5002918;28;20278;-77
2022/07/10 01:04:47;;;;;;;;;;;;;;;15.81;68.74;98512.81;4989107;28;19976;-78
2022/07/10 01:07:16;;;;;;;;;;;;;;;15.75;68.89;98510.59;4986085;28;19940;-78
2022/07/10 01:09:44;;;;;;;;;;;;;;;15.75;68.79;98508.66;4973550;28;19932;-78
2022/07/10 01:12:13;;;;;;;;;;;;;;;15.71;69.08;98513.19;4990924;28;19930;-77
2022/07/10 01:14:42;;;;;;;;;;;;;;;15.67;69.21;98512.25;4990802;28;19926;-78
2022/07/10 01:17:10;;;;;;;;;;;;;;;15.69;68.97;98510.78;4984304;28;20352;-77
2022/07/10 01:19:39;;;;;;;;;;;;;;;15.68;69.02;98506.44;4989662;28;19933;-77
2022/07/10 01:22:09;;;;;;;;;;;;;;;15.62;69.32;98505.00;4989754;28;19948;-78
2022/07/10 01:24:37;;;;;;;;;;;;;;;15.59;69.25;98511.13;4990470;28;19926;-78
2022/07/10 01:27:05;;;;;;;;;;;;;;;15.53;69.67;98512.44;4989805;28;20351;-77
2022/07/10 01:29:33;;;;;;;;;;;;;;;15.50;69.54;98504.91;4999358;28;19930;-78
2022/07/10 01:32:01;;;;;;;;;;;;;;;15.54;69.51;98516.78;4988406;28;19926;-78
2022/07/10 01:34:29;;;;;;;;;;;;;;;15.50;69.64;98506.81;4987292;28;19932;-78
2022/07/10 01:37:22;;;;;;;;;;;;;;;15.52;69.46;98510.03;4988769;28;19932;-78
2022/07/10 01:39:53;;;;;;;;;;;;;;;15.47;69.83;98502.81;4987825;28;19955;-77
2022/07/10 01:42:21;;;;;;;;;;;;;;;15.56;69.33;98506.31;4990365;28;19932;-77
2022/07/10 01:44:49;;;;;;;;;;;;;;;15.48;69.83;98501.66;4986143;28;19926;-77
2022/07/10 01:47:17;;;;;;;;;;;;;;;15.42;70.05;98506.53;4989953;28;19925;-77
2022/07/10 01:49:45;;;;;;;;;;;;;;;15.42;70.10;98500.25;4971919;28;19971;-77
2022/07/10 01:52:13;;;;;;;;;;;;;;;15.38;70.20;98504.75;4999773;28;20440;-77
2022/07/10 01:54:42;;;;;;;;;;;;;;;15.36;70.09;98502.38;4999151;28;19989;-77
2022/07/10 01:57:12;;;;;;;;;;;;;;;15.39;70.31;98506.38;4990532;28;19938;-77
2022/07/10 01:59:39;;;;;;;;;;;;;;;15.33;70.29;98499.47;4986102;28;19926;-79
2022/07/10 02:02:08;;;;;;;;;;;;;;;15.24;70.65;98509.66;4990069;28;19925;-77
2022/07/10 02:04:42;;;;;;;;;;;;;;;15.27;70.57;98515.28;4986254;28;19925;-77
2022/07/10 02:07:10;;;;;;;;;;;;;;;15.28;70.44;98516.06;4989748;28;19937;-77
2022/07/10 02:09:39;;;;;;;;;;;;;;;15.26;70.53;98513.66;4996520;28;19948;-77
2022/07/10 02:12:08;;;;;;;;;;;;;;;15.18;70.48;98520.78;4989583;28;19932;-76
2022/07/10 02:14:48;;;;;;;;;;;;;;;15.20;70.58;98514.97;4986840;28;19980;-78
2022/07/10 02:17:17;;;;;;;;;;;;;;;15.12;70.66;98511.13;4989657;28;19926;-77
2022/07/10 02:19:46;;;;;;;;;;;;;;;15.15;70.82;98513.22;4986139;28;19925;-77
2022/07/10 02:22:16;;;;;;;;;;;;;;;15.13;70.65;98515.50;4987930;28;19929;-77
2022/07/10 02:24:44;;;;;;;;;;;;;;;15.16;70.85;98520.28;4989526;28;19952;-77
2022/07/10 02:27:12;;;;;;;;;;;;;;;15.12;70.97;98513.06;4988918;28;19925;-77
2022/07/10 02:29:40;;;;;;;;;;;;;;;15.10;70.79;98513.38;4988785;28;20383;-76
2022/07/10 02:32:10;;;;;;;;;;;;;;;15.10;70.86;98516.13;4990684;28;19926;-77
2022/07/10 02:34:38;;;;;;;;;;;;;;;15.09;70.67;98514.53;4988342;28;19926;-77
2022/07/10 02:37:06;;;;;;;;;;;;;;;15.11;70.39;98517.72;5006583;28;19979;-76
2022/07/10 02:39:58;;;;;;;;;;;;;;;15.15;70.08;98515.97;4990720;28;20387;-77
2022/07/10 02:42:26;;;;;;;;;;;;;;;15.10;70.16;98526.28;5003934;28;19932;-77
2022/07/10 02:44:54;;;;;;;;;;;;;;;15.14;69.95;98528.03;4981685;28;19938;-78
2022/07/10 02:47:24;;;;;;;;;;;;;;;15.17;69.04;98524.63;4985629;28;19925;-76
2022/07/10 02:49:52;;;;;;;;;;;;;;;15.23;68.57;98532.66;4983355;28;20361;-77
2022/07/10 02:52:20;;;;;;;;;;;;;;;15.26;68.37;98530.09;4992245;28;20276;-76
2022/07/10 02:54:50;;;;;;;;;;;;;;;15.14;68.08;98533.50;5000779;28;20020;-76
2022/07/10 02:57:19;;;;;;;;;;;;;;;15.22;67.29;98525.59;4975702;28;20398;-76
2022/07/10 02:59:46;;;;;;;;;;;;;;;15.23;66.07;98521.72;4985105;28;19926;-76
2022/07/10 03:02:15;;;;;;;;;;;;;;;14.99;66.23;98528.56;4988112;28;19941;-76
2022/07/10 03:04:44;;;;;;;;;;;;;;;15.19;65.49;98527.88;4985837;28;19932;-76
2022/07/10 03:07:13;;;;;;;;;;;;;;;15.07;65.91;98535.13;4981285;28;20368;-78
2022/07/10 03:09:41;;;;;;;;;;;;;;;15.10;65.38;98531.75;4992492;28;19983;-78
2022/07/10 03:12:09;;;;;;;;;;;;;;;15.10;65.15;98531.75;4999140;28;20410;-79
2022/07/10 03:14:38;;;;;;;;;;;;;;;15.13;64.37;98529.19;4988992;28;19929;-79
2022/07/10 03:17:10;;;;;;;;;;;;;;;15.13;64.21;98529.19;4987892;28;19936;-79
2022/07/10 03:19:38;;;;;;;;;;;;;;;15.03;63.90;98529.53;4978312;28;19933;-79
2022/07/10 03:22:08;;;;;;;;;;;;;;;14.99;64.07;98531.28;4986977;28;19930;-80
2022/07/10 03:24:36;;;;;;;;;;;;;;;15.08;63.59;98531.28;4972343;28;19929;-79
2022/07/10 03:27:05;;;;;;;;;;;;;;;15.10;62.85;98532.56;4987175;28;19932;-78
2022/07/10 03:29:33;;;;;;;;;;;;;;;14.98;63.08;98535.16;4990292;28;19942;-79
2022/07/10 03:32:01;;;;;;;;;;;;;;;14.98;62.93;98542.56;4991438;28;19952;-79
2022/07/10 03:34:30;;;;;;;;;;;;;;;14.91;62.89;98541.13;4978450;28;19932;-79
2022/07/10 03:39:52;;;;;;;;;;;;;;;14.88;62.74;98541.75;4992958;28;19926;-79
2022/07/10 03:42:20;;;;;;;;;;;;;;;14.96;62.60;98545.59;4988261;28;20327;-79
2022/07/10 03:44:48;;;;;;;;;;;;;;;15.00;61.99;98543.03;4992780;28;19926;-79
2022/07/10 03:47:17;;;;;;;;;;;;;;;14.87;62.41;98542.09;4992136;28;20344;-78
2022/07/10 03:49:46;;;;;;;;;;;;;;;14.87;62.50;98544.84;4992230;28;19926;-79
2022/07/10 03:52:14;;;;;;;;;;;;;;;14.89;62.31;98545.31;4992405;28;20270;-77
2022/07/10 03:54:42;;;;;;;;;;;;;;;14.90;62.36;98544.97;5002842;28;19989;-77
2022/07/10 03:59:57;;;;;;;;;;;;;;;14.88;63.13;98544.50;4983635;28;20237;-78
2022/07/10 04:02:24;;;;;;;;;;;;;;;14.88;63.46;98544.50;4978493;28;19925;-78
2022/07/10 04:04:53;;;;;;;;;;;;;;;14.84;63.61;98537.25;4990432;28;19938;-78
2022/07/10 04:07:21;;;;;;;;;;;;;;;14.84;63.90;98549.00;4992346;28;20292;-78
2022/07/10 04:09:50;;;;;;;;;;;;;;;14.85;64.08;98545.13;4992490;28;19998;-78
2022/07/10 04:12:20;;;;;;;;;;;;;;;14.86;64.49;98537.72;4987995;28;19929;-78
2022/07/10 04:14:51;;;;;;;;;;;;;;;14.83;64.77;98539.19;4992338;28;19948;-78
2022/07/10 04:17:19;;;;;;;;;;;;;;;14.75;65.16;98539.19;5001870;28;19925;-78
2022/07/10 04:19:47;;;;;;;;;;;;;;;14.67;65.45;98543.56;4991140;28;20311;-78
2022/07/10 04:22:15;;;;;;;;;;;;;;;14.67;65.24;98541.63;4989438;28;20232;-78
2022/07/10 04:24:43;;;;;;;;;;;;;;;14.58;65.11;98538.09;4973459;28;19926;-78
2022/07/10 04:27:11;;;;;;;;;;;;;;;14.66;64.86;98545.50;5002765;28;19936;-78
2022/07/10 04:29:41;;;;;;;;;;;;;;;14.67;64.69;98549.03;4989171;28;19926;-78
2022/07/10 04:32:09;;;;;;;;;;;;;;;14.63;64.49;98550.78;4994394;28;19926;-78
2022/07/10 04:34:37;;;;;;;;;;;;;;;14.57;64.65;98544.69;4990509;28;20348;-78
2022/07/10 04:37:31;;;;;;;;;;;;;;;14.56;63.93;98547.75;4991326;28;19926;-78
2022/07/10 04:39:59;;;;;;;;;;;;;;;14.58;63.38;98540.81;4989039;28;19926;-78
2022/07/10 04:42:27;;;;;;;;;;;;;;;14.53;62.81;98551.09;4990271;28;19944;-79
2022/07/10 04:44:56;;;;;;;;;;;;;;;14.53;63.03;98557.38;4990684;28;20379;-79
2022/07/10 04:47:24;;;;;;;;;;;;;;;14.53;62.30;98565.59;4988099;28;20395;-80
2022/07/10 04:49:53;;;;;;;;;;;;;;;14.42;61.74;98561.53;4989763;28;19925;-80
2022/07/10 04:52:20;;;;;;;;;;;;;;;14.37;61.88;98561.69;4974546;28;19932;-79
2022/07/10 04:54:48;;;;;;;;;;;;;;;14.47;61.44;98557.84;4994923;28;20291;-79
2022/07/10 04:57:18;;;;;;;;;;;;;;;14.52;60.87;98560.44;4998569;28;20478;-79
2022/07/10 04:59:50;;;;;;;;;;;;;;;14.51;60.42;98553.38;4988279;28;19925;-78
2022/07/10 05:02:20;;;;;;;;;;;;;;;14.42;60.31;98564.25;4992142;28;19926;-78
2022/07/10 05:04:49;;;;;;;;;;;;;;;14.38;60.08;98568.75;4991041;28;19976;-77
2022/07/10 05:07:17;;;;;;;;;;;;;;;14.39;60.29;98573.13;4979711;28;19932;-78
2022/07/10 05:09:45;;;;;;;;;;;;;;;14.44;59.97;98580.38;4974108;28;19944;-77
2022/07/10 05:12:13;;;;;;;;;;;;;;;14.37;59.79;98578.09;4972825;28;19925;-77
2022/07/10 05:14:42;;;;;;;;;;;;;;;14.50;59.66;98579.09;4989822;28;19926;-77
2022/07/10 05:17:10;;;;;;;;;;;;;;;14.46;60.23;98575.38;4985566;28;19926;-77
2022/07/10 05:19:39;;;;;;;;;;;;;;;14.51;59.60;98576.03;4978301;28;19957;-78
2022/07/10 05:22:09;;;;;;;;;;;;;;;14.48;60.05;98575.88;4988807;28;19950;-78
2022/07/10 05:24:37;;;;;;;;;;;;;;;14.46;60.06;98567.97;4987799;28;19967;-78
2022/07/10 05:27:05;;;;;;;;;;;;;;;14.57;59.94;98574.75;4985953;28;19938;-78
2022/07/10 05:29:34;;;;;;;;;;;;;;;14.48;60.31;98576.69;4988221;28;19932;-78
2022/07/10 05:32:02;;;;;;;;;;;;;;;14.34;60.10;98581.47;4988604;28;20307;-77
2022/07/10 05:34:31;;;;;;;;;;;;;;;14.39;60.46;98586.78;4987833;28;19933;-78
2022/07/10 05:39:53;;;;;;;;;;;;;;;14.30;60.31;98588.69;4986190;28;19936;-79
2022/07/10 05:42:21;;;;;;;;;;;;;;;14.33;59.83;98585.34;4989623;28;20383;-85
2022/07/10 05:44:49;;;;;;;;;;;;;;;14.14;60.33;98591.88;4982879;28;20320;-83
2022/07/10 05:47:17;;;;;;;;;;;;;;;14.29;59.82;98592.56;4988913;28;20341;-75
2022/07/10 05:49:45;;;;;;;;;;;;;;;14.37;59.12;98591.75;4981634;28;20333;-75
2022/07/10 05:52:14;;;;;;;;;;;;;;;14.46;58.33;98598.03;4985481;28;19929;-75
2022/07/10 05:54:42;;;;;;;;;;;;;;;14.36;58.36;98596.41;4991060;28;20392;-75
2022/07/10 05:57:11;;;;;;;;;;;;;;;14.42;57.79;98588.88;4982889;28;20016;-81
2022/07/10 05:59:42;;;;;;;;;;;;;;;14.39;57.02;98592.25;4985486;28;19926;-76
2022/07/10 06:02:10;;;;;;;;;;;;;;;14.26;56.96;98599.44;4988567;28;20346;-79
2022/07/10 06:04:38;;;;;;;;;;;;;;;14.40;56.97;98597.41;4987321;28;19938;-80
2022/07/10 06:07:07;;;;;;;;;;;;;;;14.50;56.66;98595.50;4986678;28;19930;-79
2022/07/10 06:09:37;;;;;;;;;;;;;;;14.73;55.78;98599.69;4970883;28;19985;-78
2022/07/10 06:12:06;;;;;;;;;;;;;;;14.73;55.70;98598.91;4983355;28;19930;-82
2022/07/10 06:14:41;;;;;;;;;;;;;;;14.71;54.88;98595.69;4984744;28;19952;-82
2022/07/10 06:17:09;;;;;;;;;;;;;;;14.51;54.75;98600.66;4978646;28;19988;-82
2022/07/10 06:19:37;;;;;;;;;;;;;;;14.48;54.73;98604.00;4967861;28;19934;-81
2022/07/10 06:24:54;;;;;;;;;;;;;;;14.41;54.48;98609.94;4981382;28;20408;-80
2022/07/10 06:27:23;;;;;;;;;;;;;;;14.39;54.37;98606.72;4966904;28;19927;-84
2022/07/10 06:29:50;;;;;;;;;;;;;;;14.57;54.33;98602.09;4967088;28;19936;-83
2022/07/10 06:32:18;;;;;;;;;;;;;;;14.63;53.89;98600.81;4968939;28;20332;-80
2022/07/10 06:34:47;;;;;;;;;;;;;;;14.51;54.03;98597.13;4968897;28;19937;-82
2022/07/10 06:37:40;;;;;;;;;;;;;;;14.56;54.41;98595.03;4980513;28;19926;-79
2022/07/10 06:40:11;;;;;;;;;;;;;;;14.60;54.23;98596.00;4983272;28;20053;-80
2022/07/10 06:42:39;;;;;;;;;;;;;;;14.67;54.23;98593.59;4969362;28;19952;-81
2022/07/10 06:45:12;;;;;;;;;;;;;;;14.77;54.19;98595.19;4983558;28;20296;-82
2022/07/10 06:47:58;;;;;;;;;;;;;;;14.75;53.76;98596.63;4970979;28;19926;-80
2022/07/10 06:50:27;;;;;;;;;;;;;;;14.86;53.85;98603.38;4969707;28;20009;-80
2022/07/10 06:52:55;;;;;;;;;;;;;;;15.04;53.91;98605.00;4969368;28;19926;-81
2022/07/10 06:55:25;;;;;;;;;;;;;;;14.94;54.20;98610.81;4970287;28;19944;-82
2022/07/10 06:57:53;;;;;;;;;;;;;;;15.10;53.95;98600.97;4999413;28;19933;-80
2022/07/10 07:00:21;;;;;;;;;;;;;;;15.03;53.67;98608.88;4970733;28;19948;-80
2022/07/10 07:02:50;;;;;;;;;;;;;;;14.95;53.86;98606.94;4983759;28;20396;-81
2022/07/10 07:05:21;;;;;;;;;;;;;;;14.94;54.40;98610.81;4973580;28;20340;-80
2022/07/10 07:07:50;;;;;;;;;;;;;;;14.93;54.54;98615.47;4992725;28;19930;-89
2022/07/10 07:10:18;;;;;;;;;;;;;;;14.77;54.82;98613.53;5006545;28;19934;-88
2022/07/10 07:12:48;;;;;;;;;;;;;;;14.68;55.37;98611.59;4971519;28;19950;-78
2022/07/10 07:15:17;;;;;;;;;;;;;;;14.68;55.06;98619.81;4974055;28;19934;-77
2022/07/10 07:17:56;;;;;;;;;;;;;;;14.75;55.03;98621.25;5003756;28;20295;-78
2022/07/10 07:23:14;;;;;;;;;;;;;;;14.63;51.85;98622.69;4984521;28;19936;-76
2022/07/10 07:25:46;;;;;;;;;;;;;;;14.78;50.60;98617.88;4971754;28;19944;-78
2022/07/10 07:28:17;;;;;;;;;;;;;;;15.04;50.90;98621.41;4973222;28;20001;-78
2022/07/10 07:30:49;;;;;;;;;;;;;;;15.17;49.40;98623.16;4995181;28;20312;-76
2022/07/10 07:33:18;;;;;;;;;;;;;;;15.17;49.06;98625.91;4970464;28;19941;-77
2022/07/10 07:35:46;;;;;;;;;;;;;;;15.31;49.17;98625.72;4969225;28;20045;-76
2022/07/10 07:38:15;;;;;;;;;;;;;;;15.48;48.26;98626.81;4970884;28;19940;-77
2022/07/10 07:40:44;;;;;;;;;;;;;;;15.44;48.13;98623.91;4969641;28;20360;-76
2022/07/10 07:43:12;;;;;;;;;;;;;;;15.06;48.64;98635.56;4969539;28;20288;-78
2022/07/10 07:45:42;;;;;;;;;;;;;;;15.22;47.77;98644.09;4970822;28;19930;-77
2022/07/10 07:48:10;;;;;;;;;;;;;;;15.11;47.62;98629.94;4971212;28;19939;-76
2022/07/10 07:50:38;;;;;;;;;;;;;;;15.13;47.21;98624.16;4985815;28;19926;-77
2022/07/10 07:53:06;;;;;;;;;;;;;;;15.23;47.29;98628.47;4968498;28;19953;-77
2022/07/10 07:55:34;;;;;;;;;;;;;;;15.24;46.96;98627.38;4971220;28;20360;-77
2022/07/10 07:58:03;;;;;;;;;;;;;;;15.33;45.85;98623.47;4970162;28;19926;-77
2022/07/10 08:00:31;;;;;;;;;;;;;;;15.25;46.11;98621.56;4971797;28;19926;-77
2022/07/10 08:03:01;;;;;;;;;;;;;;;15.51;45.90;98629.72;4971815;28;19960;-77
2022/07/10 08:05:34;;;;;;;;;;;;;;;15.46;45.60;98630.69;5001888;28;20033;-76
2022/07/10 08:08:08;;;;;;;;;;;;;;;15.37;45.84;98624.44;5002246;28;20268;-76
2022/07/10 08:10:42;;;;;;;;;;;;;;;15.26;45.80;98623.16;4983717;28;19926;-77
2022/07/10 08:13:12;;;;;;;;;;;;;;;15.15;46.39;98633.63;4970265;28;19933;-76
2022/07/10 08:15:40;;;;;;;;;;;;;;;15.32;45.54;98629.28;4970534;28;19937;-77
2022/07/10 08:18:10;;;;;;;;;;;;;;;15.14;45.46;98643.00;4983017;28;19934;-79
2022/07/10 08:20:38;;;;;;;;;;;;;;;15.14;45.88;98632.03;4983954;28;20253;-78
2022/07/10 08:23:06;;;;;;;;;;;;;;;15.36;45.33;98627.50;4971266;28;19932;-77
2022/07/10 08:25:35;;;;;;;;;;;;;;;15.66;44.72;98614.75;4971204;28;19985;-77
2022/07/10 08:28:03;;;;;;;;;;;;;;;15.78;44.06;98614.84;4970428;28;19926;-77
2022/07/10 08:30:31;;;;;;;;;;;;;;;15.64;44.51;98611.50;5001280;28;19937;-78
2022/07/10 08:33:00;;;;;;;;;;;;;;;15.70;45.20;98611.00;4982994;28;19938;-77
2022/07/10 08:35:30;;;;;;;;;;;;;;;15.70;44.42;98626.63;4983469;28;20021;-76
2022/07/10 08:37:58;;;;;;;;;;;;;;;15.70;43.68;98621.94;4970046;28;19948;-76
2022/07/10 08:40:26;;;;;;;;;;;;;;;15.73;43.82;98611.47;4970140;28;20381;-77
2022/07/10 08:42:54;;;;;;;;;;;;;;;15.77;44.02;98612.44;4972051;28;19926;-77
2022/07/10 08:45:23;;;;;;;;;;;;;;;15.76;44.16;98624.50;4984345;28;19936;-77
2022/07/10 08:47:51;;;;;;;;;;;;;;;15.83;43.83;98614.66;4971591;28;19934;-76
2022/07/10 08:50:22;;;;;;;;;;;;;;;15.96;44.16;98621.03;4981110;28;19934;-77
2022/07/10 08:52:56;;;;;;;;;;;;;;;15.78;44.14;98600.34;4968140;28;19927;-77
2022/07/10 08:55:24;;;;;;;;;;;;;;;15.90;44.19;98614.94;4966037;28;19976;-77
2022/07/10 08:57:53;;;;;;;;;;;;;;;15.71;43.70;98601.66;4969551;28;19957;-76
2022/07/10 09:00:21;;;;;;;;;;;;;;;15.83;43.87;98624.81;4985730;28;19934;-77
2022/07/10 09:02:50;;;;;;;;;;;;;;;15.84;44.01;98604.50;4970538;28;20260;-76
2022/07/10 09:08:27;;;;;;;;;;;;;;;15.76;44.05;98603.41;5002535;28;19934;-76
2022/07/10 09:11:06;;;;;;;;;;;;;;;15.65;44.66;98624.06;4999254;28;19930;-79
2022/07/10 09:13:35;;;;;;;;;;;;;;;15.75;44.65;98623.72;4985593;28;19926;-76
2022/07/10 09:16:29;;;;;;;;;;;;;;;15.80;44.32;98609.03;4987600;28;20029;-77
2022/07/10 09:18:57;;;;;;;;;;;;;;;15.67;44.48;98622.63;4987303;28;20594;-82
2022/07/10 09:21:27;;;;;;;;;;;;;;;15.92;43.02;98615.41;4999771;28;19963;-78
2022/07/10 09:24:00;;;;;;;;;;;;;;;15.93;43.51;98616.25;4985662;28;19948;-79
2022/07/10 09:26:28;;;;;;;;;;;;;;;16.01;43.50;98614.59;4980343;28;19930;-78
2022/07/10 09:29:06;;;;;;;;;;;;;;;16.08;43.12;98615.66;4990736;28;19948;-77
2022/07/10 09:31:49;;;;;;;;;;;;;;;16.03;43.44;98618.59;4984515;28;19951;-75
2022/07/10 09:34:17;;;;;;;;;;;;;;;15.97;42.41;98617.16;4997602;28;19984;-77
2022/07/10 09:40:03;;;;;;;;;;;;;;;16.15;42.55;98615.97;4979091;28;19948;-75
2022/07/10 09:42:33;;;;;;;;;;;;;;;16.19;42.45;98618.84;4993454;28;20004;-74
2022/07/10 09:45:15;;;;;;;;;;;;;;;16.35;42.38;98613.59;4971862;28;19976;-74
2022/07/10 09:47:44;;;;;;;;;;;;;;;16.54;42.12;98621.38;4988456;28;19926;-74
2022/07/10 09:50:23;;;;;;;;;;;;;;;16.41;42.32;98628.72;4991960;28;20142;-76
2022/07/10 09:52:51;;;;;;;;;;;;;;;16.41;42.70;98624.03;4989387;28;19936;-76
2022/07/10 09:55:22;;;;;;;;;;;;;;;16.23;41.76;98628.00;4982181;28;20021;-75
2022/07/10 09:57:52;;;;;;;;;;;;;;;16.28;42.69;98619.59;5004275;28;19940;-73
2022/07/10 10:00:21;;;;;;;;;;;;;;;16.27;42.26;98617.19;4977966;28;19925;-74
2022/07/10 10:02:49;;;;;;;;;;;;;;;16.16;42.58;98630.47;4989341;28;20509;-74
2022/07/10 10:05:17;;;;;;;;;;;;;;;16.10;43.29;98623.56;4989368;28;19926;-74
2022/07/10 10:08:12;;;;;;;;;;;;;;;16.14;43.61;98630.81;4981122;28;19940;-74
2022/07/10 10:10:47;;;;;;;;;;;;;;;16.19;44.06;98636.09;4998766;28;19932;-75
2022/07/10 10:13:17;;;;;;;;;;;;;;;16.16;43.60;98636.75;4987137;28;20299;-75
2022/07/10 10:15:45;;;;;;;;;;;;;;;16.22;43.92;98631.88;4986337;28;19972;-80
2022/07/10 10:18:13;;;;;;;;;;;;;;;16.27;43.82;98634.44;4986784;28;19937;-75
2022/07/10 10:20:45;;;;;;;;;;;;;;;16.40;43.64;98635.31;4999548;28;19999;-76
2022/07/10 10:23:15;;;;;;;;;;;;;;;16.35;44.04;98635.50;4979199;28;19948;-75
2022/07/10 10:25:43;;;;;;;;;;;;;;;16.37;43.90;98633.25;4984914;28;19930;-75
2022/07/10 10:28:12;;;;;;;;;;;;;;;16.34;44.31;98639.41;4988147;28;19933;-74
2022/07/10 10:30:43;;;;;;;;;;;;;;;16.33;44.24;98635.84;4970009;28;19936;-75
2022/07/10 10:33:31;;;;;;;;;;;;;;;16.23;44.31;98634.28;4987740;28;19926;-76
2022/07/10 10:36:00;;;;;;;;;;;;;;;16.19;44.56;98638.03;4999401;28;19998;-75
2022/07/10 10:38:31;;;;;;;;;;;;;;;16.12;44.78;98632.25;4986645;28;19926;-76
2022/07/10 10:41:05;;;;;;;;;;;;;;;16.12;44.83;98622.09;4984405;28;19932;-75
2022/07/10 10:43:35;;;;;;;;;;;;;;;16.14;44.86;98621.75;4987850;28;19934;-75
2022/07/10 10:46:12;;;;;;;;;;;;;;;16.30;44.31;98616.50;4986644;28;19936;-76
2022/07/10 10:48:40;;;;;;;;;;;;;;;16.32;44.75;98625.22;5002661;28;19948;-76
2022/07/10 10:51:09;;;;;;;;;;;;;;;16.42;44.23;98624.84;4970790;28;20382;-76
2022/07/10 10:53:37;;;;;;;;;;;;;;;16.44;44.27;98617.88;5006338;28;19932;-76
2022/07/10 10:56:25;;;;;;;;;;;;;;;16.53;44.17;98630.75;5012069;28;20033;-76
2022/07/10 10:58:54;;;;;;;;;;;;;;;16.40;44.56;98627.09;5001652;28;19926;-76
2022/07/10 11:01:26;;;;;;;;;;;;;;;16.38;44.58;98621.97;4988050;28;20218;-75
2022/07/10 11:04:16;;;;;;;;;;;;;;;16.55;44.36;98626.53;4986694;28;19940;-76
2022/07/10 11:06:45;;;;;;;;;;;;;;;16.48;44.15;98629.81;4984058;28;19929;-76
2022/07/10 11:09:24;;;;;;;;;;;;;;;16.56;44.24;98622.63;4986824;28;20419;-75
2022/07/10 11:12:00;;;;;;;;;;;;;;;16.55;44.16;98633.94;4970579;28;20371;-76
2022/07/10 11:14:31;;;;;;;;;;;;;;;16.45;44.37;98627.72;4987178;28;19926;-75
2022/07/10 11:16:59;;;;;;;;;;;;;;;16.45;44.58;98624.16;4985374;28;19940;-74
2022/07/10 11:19:28;;;;;;;;;;;;;;;16.49;43.90;98622.38;4987032;28;19926;-75
2022/07/10 11:22:00;;;;;;;;;;;;;;;16.53;44.02;98617.84;4986319;28;19926;-75
2022/07/10 11:24:39;;;;;;;;;;;;;;;16.61;43.78;98622.44;4984167;28;19926;-75
2022/07/10 11:27:10;;;;;;;;;;;;;;;16.65;44.18;98626.13;4986053;28;19952;-75
2022/07/10 11:29:40;;;;;;;;;;;;;;;16.73;44.12;98641.78;4985363;28;19926;-75
2022/07/10 11:32:08;;;;;;;;;;;;;;;16.59;44.87;98632.97;4982848;28;19940;-74
2022/07/10 11:34:37;;;;;;;;;;;;;;;16.54;45.33;98632.34;4985361;28;19926;-75
2022/07/10 11:40:10;;;;;;;;;;;;;;;16.48;45.61;98634.47;4999469;28;19926;-75
2022/07/10 11:42:51;;;;;;;;;;;;;;;16.52;45.41;98632.69;4986369;28;19948;-76
2022/07/10 11:45:25;;;;;;;;;;;;;;;16.50;45.02;98627.53;4986677;28;19930;-75
2022/07/10 11:47:53;;;;;;;;;;;;;;;16.60;45.02;98623.59;4987969;28;19933;-75
2022/07/10 11:50:22;;;;;;;;;;;;;;;16.65;44.40;98625.34;4983824;28;19934;-75
2022/07/10 11:52:50;;;;;;;;;;;;;;;16.66;43.94;98614.00;4991695;28;20402;-75
2022/07/10 11:55:19;;;;;;;;;;;;;;;16.84;43.89;98613.94;4988195;28;19926;-75
2022/07/10 11:57:49;;;;;;;;;;;;;;;16.79;43.98;98616.88;4972465;28;20033;-75
2022/07/10 12:00:25;;;;;;;;;;;;;;;16.60;43.89;98626.31;4988283;28;20239;-75
2022/07/10 12:02:54;;;;;;;;;;;;;;;16.72;43.44;98620.97;4989112;28;20314;-78
2022/07/10 12:05:47;;;;;;;;;;;;;;;16.79;43.50;98616.88;4987389;28;19926;-75
2022/07/10 12:08:15;;;;;;;;;;;;;;;16.82;43.38;98616.19;4979196;28;19933;-76
2022/07/10 12:10:45;;;;;;;;;;;;;;;16.87;43.65;98611.31;4969784;28;19926;-75
2022/07/10 12:13:14;;;;;;;;;;;;;;;16.92;42.96;98607.56;4973286;28;19941;-76
2022/07/10 12:15:44;;;;;;;;;;;;;;;16.93;43.09;98603.66;4971981;28;20256;-76
2022/07/10 12:18:16;;;;;;;;;;;;;;;16.88;42.43;98604.66;4970850;28;19930;-74
2022/07/10 12:20:45;;;;;;;;;;;;;;;16.91;42.47;98605.97;4969058;28;19926;-75
2022/07/10 12:23:15;;;;;;;;;;;;;;;17.02;42.54;98613.44;4967318;28;20371;-76
2022/07/10 12:25:53;;;;;;;;;;;;;;;16.86;42.25;98609.69;4970719;28;19934;-75
2022/07/10 12:28:21;;;;;;;;;;;;;;;16.90;41.90;98609.84;4972040;28;19934;-77
2022/07/10 12:30:53;;;;;;;;;;;;;;;16.84;42.14;98614.75;4971512;28;19936;-75
2022/07/10 12:33:21;;;;;;;;;;;;;;;16.84;42.55;98613.94;4970091;28;19931;-75
2022/07/10 12:35:50;;;;;;;;;;;;;;;16.86;42.67;98611.66;4956368;28;19993;-74
2022/07/10 12:38:19;;;;;;;;;;;;;;;16.92;42.45;98613.84;4970935;28;19926;-74
2022/07/10 12:40:47;;;;;;;;;;;;;;;16.94;41.25;98619.03;4969991;28;19926;-75
2022/07/10 12:43:26;;;;;;;;;;;;;;;17.04;42.15;98624.06;4967959;28;19930;-76
2022/07/10 12:46:14;;;;;;;;;;;;;;;17.02;41.88;98612.63;4968827;28;19997;-75
2022/07/10 12:48:44;;;;;;;;;;;;;;;16.87;42.62;98613.25;4967465;28;20389;-75
2022/07/10 12:51:25;;;;;;;;;;;;;;;16.86;43.09;98622.63;4968626;28;19927;-75
2022/07/10 12:53:54;;;;;;;;;;;;;;;16.89;42.79;98627.47;4971440;28;20503;-75
2022/07/10 12:56:32;;;;;;;;;;;;;;;16.97;42.50;98616.38;4968598;28;19937;-75
2022/07/10 12:59:00;;;;;;;;;;;;;;;16.90;42.04;98618.09;4964924;28;19926;-75
2022/07/10 13:01:30;;;;;;;;;;;;;;;17.06;42.01;98615.53;4970731;28;19981;-75
2022/07/10 13:03:59;;;;;;;;;;;;;;;17.11;41.90;98618.88;4970400;28;19933;-74
2022/07/10 13:06:32;;;;;;;;;;;;;;;17.07;41.39;98617.13;4970691;28;19926;-75
2022/07/10 13:09:00;;;;;;;;;;;;;;;17.20;41.34;98611.31;4983992;28;20265;-75
2022/07/10 13:11:28;;;;;;;;;;;;;;;17.28;41.11;98610.44;4990137;28;19925;-74
2022/07/10 13:13:57;;;;;;;;;;;;;;;17.23;41.29;98615.34;4987374;28;19937;-75
2022/07/10 13:16:24;;;;;;;;;;;;;;;17.22;40.68;98625.53;4989683;28;19987;-75
2022/07/10 13:18:54;;;;;;;;;;;;;;;17.25;40.48;98610.31;4991759;28;20343;-75
2022/07/10 13:21:27;;;;;;;;;;;;;;;17.27;39.74;98610.81;4990717;28;19981;-73
2022/07/10 13:23:56;;;;;;;;;;;;;;;17.22;39.67;98605.53;4991734;28;20396;-76
2022/07/10 13:26:24;;;;;;;;;;;;;;;17.26;39.75;98603.72;4986602;28;19930;-76